Michigan City, MS (38647)

10:19 PM CDT on July 04, 2015 (GMT -0500)
PHQ | | Change Station
CLOSE
Current Station
Personal Weather Station
Location: Ashland, MS
Elevation: 630 ft
Nearby Weather Stations

Elev 630 ft 34.83 °N, 89.17 °W | Updated 6 minutes ago

Mostly Cloudy
Mostly Cloudy
69.4 °F
Feels Like 69.4 °F
N
0.0
Wind Variable Wind from SW

Today
High -- | Low -- °F
--% Chance of Precip.
Yesterday
High -- | Low -- °F
Precip. -- in
5:48 AM 8:14 PM
Waning Gibbous, 88% visible
Pressure 30.02 in
Visibility 8.0 miles
Clouds Few 300 ft
Scattered Clouds 6500 ft
Mostly Cloudy 9000 ft
Dew Point 68 °F
Humidity 96%
Rainfall 0.14 in
Snow Depth Not available.
UV 0 out of 12
Pollen 1.50 out of 12
Air Quality Not available.
Flu Activity Not available.
METAR KCRX 050315Z AUTO 13004KT 8SM -DZ FEW003 SCT065 BKN090 22/21 A3002 RMK AO2

More Conditions Fewer Conditions

Pressure 30.02 in
Visibility 8.0 miles
Clouds Few 300 ft
Scattered Clouds 6500 ft
Mostly Cloudy 9000 ft
Dew Point 68 °F
Humidity 96%
Rainfall 0.14 in
Snow Depth Not available.
UV 0 out of 12
Pollen 1.50 out of 12
Air Quality Not available.
Flu Activity Not available.
METAR KCRX 050315Z AUTO 13004KT 8SM -DZ FEW003 SCT065 BKN090 22/21 A3002 RMK AO2

More Conditions Fewer Conditions

10-Day Weather Forecast

×

Almanac

Astronomy

Jul. 04, 2015 Rise Set
Actual Time
Civil Twilight
Nautical Twilight
Astronomical Twilight
Moon
Length of Visible Light
Length of Day
Tomorrow will be .
, % of the Moon is Illuminated

Today's Extremes

State Highs State Lows

Community

WunderPhotos

Upload Photos

1,835,177 photos uploaded!

WunderBlogs® & News

Nearby

Air Quality

  Air Quality AQ Index Pollutant
Not available.

Snow Depth

Station Depth Elevation

Earthquake Activity

City Distance Mag. Time & Date
Minimum magnitude displayed is 2.5.

Coastal Water Temperatures

Place Temperature

Stations

Nearby Weather Stations

Station Location Temp. Windchill Dew Point Humidity Wind Precip. Elev Updated Type